createdAt,value
2019-01-13T00:00:25.327Z,997.46
2019-01-13T00:01:25.062Z,997.38
2019-01-13T00:02:25.727Z,997.46
2019-01-13T00:03:26.305Z,997.43
2019-01-13T00:04:26.044Z,997.45
2019-01-13T00:05:25.623Z,997.37
2019-01-13T00:06:26.603Z,997.37
2019-01-13T00:07:26.652Z,997.36
2019-01-13T00:08:25.636Z,997.38
2019-01-13T00:09:25.852Z,997.39
2019-01-13T00:10:25.759Z,997.37
2019-01-13T00:11:24.905Z,997.36
2019-01-13T00:12:25.318Z,997.32
2019-01-13T00:13:25.562Z,997.35
2019-01-13T00:14:25.030Z,997.27
2019-01-13T00:15:25.548Z,997.30
2019-01-13T00:16:26.553Z,997.29
2019-01-13T00:17:24.845Z,997.32
2019-01-13T00:18:25.219Z,997.28
2019-01-13T00:19:24.942Z,997.34
2019-01-13T00:20:24.874Z,997.31
2019-01-13T00:21:24.948Z,997.28
2019-01-13T00:22:25.548Z,997.25
2019-01-13T00:23:24.861Z,997.29
2019-01-13T00:24:25.194Z,997.33
2019-01-13T00:25:25.581Z,997.32
2019-01-13T00:26:26.548Z,997.30
2019-01-13T00:27:25.549Z,997.35
2019-01-13T00:28:24.818Z,997.35
2019-01-13T00:29:25.569Z,997.33
2019-01-13T00:30:25.661Z,997.33
2019-01-13T00:31:25.549Z,997.35
2019-01-13T00:32:25.576Z,997.34
2019-01-13T00:33:24.843Z,997.34
2019-01-13T00:34:24.714Z,997.36
2019-01-13T00:35:24.676Z,997.35
2019-01-13T00:36:24.656Z,997.38
2019-01-13T00:37:24.645Z,997.43
2019-01-13T00:38:24.730Z,997.41
2019-01-13T00:39:24.626Z,997.46
2019-01-13T00:40:24.700Z,997.47
2019-01-13T00:41:33.929Z,997.42
2019-01-13T00:42:33.701Z,997.47
2019-01-13T00:43:24.570Z,997.41
2019-01-13T00:44:33.765Z,997.45
2019-01-13T00:45:24.577Z,997.46
2019-01-13T00:46:33.324Z,997.41
2019-01-13T00:48:41.661Z,997.48
2019-01-13T00:50:53.917Z,997.52
2019-01-13T00:51:53.827Z,997.59
2019-01-13T00:53:05.440Z,997.51
2019-01-13T00:53:54.955Z,997.51
2019-01-13T00:54:53.858Z,997.47
2019-01-13T00:55:53.745Z,997.51
2019-01-13T00:56:53.762Z,997.42
2019-01-13T00:57:53.745Z,997.43
2019-01-13T00:58:53.731Z,997.48
2019-01-13T00:59:53.749Z,997.46
2019-01-13T01:00:53.771Z,997.44
2019-01-13T01:01:53.738Z,997.38
2019-01-13T01:02:53.779Z,997.40
2019-01-13T01:03:53.742Z,997.37
2019-01-13T01:04:53.694Z,997.35
2019-01-13T01:05:53.708Z,997.29
2019-01-13T01:06:53.631Z,997.44
2019-01-13T01:07:53.666Z,997.37
2019-01-13T01:08:53.704Z,997.36
2019-01-13T01:09:53.624Z,997.30
2019-01-13T01:10:53.622Z,997.33
2019-01-13T01:11:53.733Z,997.35
2019-01-13T01:12:53.628Z,997.31
2019-01-13T01:13:53.600Z,997.30
2019-01-13T01:14:53.611Z,997.33
2019-01-13T01:15:53.616Z,997.30
2019-01-13T01:16:53.568Z,997.37
2019-01-13T01:17:53.592Z,997.35
2019-01-13T01:19:05.355Z,997.33
2019-01-13T01:20:02.799Z,997.38
2019-01-13T01:20:53.483Z,997.42
2019-01-13T01:22:01.159Z,997.39
2019-01-13T01:23:02.832Z,997.42
2019-01-13T01:23:53.479Z,997.44
2019-01-13T01:24:53.525Z,997.50
2019-01-13T01:25:53.544Z,997.42
2019-01-13T01:26:53.657Z,997.47
2019-01-13T01:27:53.443Z,997.49
2019-01-13T01:28:53.431Z,997.45
2019-01-13T01:29:53.422Z,997.43
2019-01-13T01:30:53.395Z,997.54
2019-01-13T01:31:53.391Z,997.50
2019-01-13T01:32:53.548Z,997.52
2019-01-13T01:33:53.365Z,997.53
2019-01-13T01:34:53.373Z,997.50
2019-01-13T01:35:53.324Z,997.56
2019-01-13T01:36:54.243Z,997.60
2019-01-13T01:37:53.441Z,997.54
2019-01-13T01:38:53.298Z,997.52
2019-01-13T01:39:53.524Z,997.52
2019-01-13T01:40:53.320Z,997.53
2019-01-13T01:41:53.423Z,997.60
2019-01-13T01:42:54.143Z,997.56
2019-01-13T01:43:53.319Z,997.70
2019-01-13T01:44:53.275Z,997.60
2019-01-13T01:45:53.276Z,997.62
2019-01-13T01:46:53.255Z,997.60
2019-01-13T01:47:53.240Z,997.63
2019-01-13T01:48:53.294Z,997.56
2019-01-13T01:49:53.214Z,997.58
2019-01-13T01:50:53.196Z,997.50
2019-01-13T01:51:53.289Z,997.58
2019-01-13T01:52:53.162Z,997.54
2019-01-13T01:53:53.231Z,997.55
2019-01-13T01:54:53.206Z,997.63
2019-01-13T01:55:53.223Z,997.61
2019-01-13T01:56:53.116Z,997.53
2019-01-13T01:57:53.649Z,997.50
2019-01-13T01:58:53.140Z,997.54
2019-01-13T01:59:53.134Z,997.59
2019-01-13T02:00:53.058Z,997.56
2019-01-13T02:01:53.121Z,997.61
2019-01-13T02:02:53.057Z,997.62
2019-01-13T02:03:53.054Z,997.60
2019-01-13T02:04:53.235Z,997.58
2019-01-13T02:05:53.055Z,997.61
2019-01-13T02:06:53.000Z,997.56
2019-01-13T02:07:53.003Z,997.61
2019-01-13T02:08:53.006Z,997.62
2019-01-13T02:09:53.015Z,997.62
2019-01-13T02:10:53.037Z,997.70
2019-01-13T02:11:52.961Z,997.75
2019-01-13T02:12:52.998Z,997.67
2019-01-13T02:13:52.990Z,997.63
2019-01-13T02:14:52.925Z,997.69
2019-01-13T02:15:52.968Z,997.67
2019-01-13T02:16:53.124Z,997.65
2019-01-13T02:17:53.016Z,997.66
2019-01-13T02:18:53.139Z,997.67
2019-01-13T02:19:52.909Z,997.69
2019-01-13T02:20:52.914Z,997.69
2019-01-13T02:21:52.952Z,997.68
2019-01-13T02:22:52.941Z,997.74
2019-01-13T02:23:53.554Z,997.70
2019-01-13T02:24:53.649Z,997.77
2019-01-13T02:25:52.984Z,997.69
2019-01-13T02:26:52.926Z,997.75
2019-01-13T02:27:52.831Z,997.73
2019-01-13T02:28:52.786Z,997.75
2019-01-13T02:29:52.811Z,997.76
2019-01-13T02:30:53.053Z,997.78
2019-01-13T02:31:52.806Z,997.75
2019-01-13T02:32:52.920Z,997.75
2019-01-13T02:33:52.844Z,997.77
2019-01-13T02:34:52.722Z,997.71
2019-01-13T02:35:52.856Z,997.73
2019-01-13T02:36:52.692Z,997.74
2019-01-13T02:37:52.699Z,997.66
2019-01-13T02:38:52.767Z,997.68
2019-01-13T02:39:52.924Z,997.71
2019-01-13T02:40:52.654Z,997.68
2019-01-13T02:42:02.863Z,997.68
2019-01-13T02:43:00.957Z,997.60
2019-01-13T02:45:04.613Z,997.59
2019-01-13T02:46:03.778Z,997.56
2019-01-13T02:47:03.870Z,997.61
2019-01-13T02:48:03.790Z,997.65
2019-01-13T02:49:03.718Z,997.57
2019-01-13T02:50:03.695Z,997.60
2019-01-13T02:51:03.709Z,997.54
2019-01-13T02:52:03.686Z,997.58
2019-01-13T02:53:03.688Z,997.55
2019-01-13T02:54:03.627Z,997.63
2019-01-13T02:55:03.625Z,997.59
2019-01-13T02:56:03.658Z,997.54
2019-01-13T02:57:03.628Z,997.52
2019-01-13T02:58:03.609Z,997.56
2019-01-13T02:59:03.768Z,997.54
2019-01-13T03:00:03.609Z,997.56
2019-01-13T03:01:03.628Z,997.50
2019-01-13T03:02:03.569Z,997.57
2019-01-13T03:03:03.581Z,997.54
2019-01-13T03:04:03.631Z,997.52
2019-01-13T03:05:03.545Z,997.46
2019-01-13T03:06:03.513Z,997.46
2019-01-13T03:07:03.542Z,997.49
2019-01-13T03:08:03.560Z,997.52
2019-01-13T03:09:03.482Z,997.52
2019-01-13T03:10:12.702Z,997.53
2019-01-13T03:11:03.531Z,997.46
2019-01-13T03:12:03.468Z,997.52
2019-01-13T03:13:03.713Z,997.48
2019-01-13T03:14:04.016Z,997.53
2019-01-13T03:15:03.470Z,997.56
2019-01-13T03:16:03.421Z,997.57
2019-01-13T03:17:03.478Z,997.52
2019-01-13T03:18:03.404Z,997.54
2019-01-13T03:19:03.438Z,997.51
2019-01-13T03:20:03.423Z,997.56
2019-01-13T03:21:03.442Z,997.54
2019-01-13T03:22:03.347Z,997.48
2019-01-13T03:23:03.395Z,997.47
2019-01-13T03:24:03.352Z,997.52
2019-01-13T03:25:03.385Z,997.43
2019-01-13T03:26:03.350Z,997.42
2019-01-13T03:27:03.357Z,997.40
2019-01-13T03:28:03.345Z,997.46
2019-01-13T03:29:03.317Z,997.44
2019-01-13T03:30:03.301Z,997.44
2019-01-13T03:31:12.248Z,997.49
2019-01-13T03:32:04.245Z,997.48
2019-01-13T03:33:03.211Z,997.54
2019-01-13T03:34:03.273Z,997.51
2019-01-13T03:35:03.240Z,997.46
2019-01-13T03:36:03.193Z,997.48
2019-01-13T03:37:03.224Z,997.51
2019-01-13T03:38:03.226Z,997.50
2019-01-13T03:39:03.217Z,997.42
2019-01-13T03:40:03.205Z,997.49
2019-01-13T03:41:03.173Z,997.40
2019-01-13T03:42:03.153Z,997.43
2019-01-13T03:43:03.282Z,997.48
2019-01-13T03:44:03.190Z,997.45
2019-01-13T03:45:03.120Z,997.47
2019-01-13T03:46:12.661Z,997.44
2019-01-13T03:47:12.299Z,997.43
2019-01-13T03:48:12.204Z,997.43
2019-01-13T03:49:11.776Z,997.39
2019-01-13T03:50:12.853Z,997.36
2019-01-13T03:51:13.296Z,997.36
2019-01-13T03:53:21.140Z,997.41
2019-01-13T03:54:21.213Z,997.43
2019-01-13T03:55:21.148Z,997.39
2019-01-13T03:56:21.148Z,997.40
2019-01-13T03:57:21.113Z,997.36
2019-01-13T03:58:21.093Z,997.38
2019-01-13T03:59:21.080Z,997.39
2019-01-13T04:00:21.052Z,997.35
2019-01-13T04:01:21.091Z,997.34
2019-01-13T04:02:21.066Z,997.40
2019-01-13T04:03:21.021Z,997.41
2019-01-13T04:04:21.099Z,997.41
2019-01-13T04:05:21.017Z,997.36
2019-01-13T04:06:21.077Z,997.37
2019-01-13T04:07:21.047Z,997.34
2019-01-13T04:08:20.976Z,997.37
2019-01-13T04:09:30.662Z,997.32
2019-01-13T04:10:20.953Z,997.27
2019-01-13T04:11:20.995Z,997.29
2019-01-13T04:12:21.003Z,997.30
2019-01-13T04:13:22.384Z,997.34
2019-01-13T04:14:20.901Z,997.24
2019-01-13T04:15:20.906Z,997.26
2019-01-13T04:16:20.896Z,997.28
2019-01-13T04:17:20.879Z,997.21
2019-01-13T04:18:20.966Z,997.19
2019-01-13T04:19:20.899Z,997.15
2019-01-13T04:20:20.846Z,997.12
2019-01-13T04:21:20.853Z,997.14
2019-01-13T04:22:20.817Z,997.15
2019-01-13T04:23:21.302Z,997.13
2019-01-13T04:24:20.807Z,997.09
2019-01-13T04:25:20.959Z,997.08
2019-01-13T04:26:21.675Z,997.09
2019-01-13T04:27:20.785Z,997.08
2019-01-13T04:28:21.214Z,997.03
2019-01-13T04:29:20.762Z,997.04
2019-01-13T04:30:20.815Z,997.05
2019-01-13T04:31:26.607Z,997.03
2019-01-13T04:32:21.755Z,997.08
2019-01-13T04:33:20.821Z,997.01
2019-01-13T04:34:20.680Z,997.02
2019-01-13T04:35:20.713Z,996.98
2019-01-13T04:36:20.824Z,996.98
2019-01-13T04:37:20.755Z,996.95
2019-01-13T04:38:20.697Z,996.94
2019-01-13T04:39:20.673Z,996.90
2019-01-13T04:40:20.640Z,996.91
2019-01-13T04:41:20.676Z,996.93
2019-01-13T04:42:20.657Z,996.85
2019-01-13T04:43:20.621Z,996.90
2019-01-13T04:44:20.676Z,996.86
2019-01-13T04:45:20.602Z,996.87
2019-01-13T04:46:20.549Z,996.88
2019-01-13T04:47:20.556Z,996.93
2019-01-13T04:48:20.533Z,996.87
2019-01-13T04:49:20.576Z,996.91
2019-01-13T04:50:20.620Z,996.92
2019-01-13T04:51:20.512Z,996.88
2019-01-13T04:52:20.521Z,996.94
2019-01-13T04:53:20.558Z,996.89
2019-01-13T04:54:20.488Z,996.93
2019-01-13T04:55:20.453Z,996.88
2019-01-13T04:56:20.533Z,996.88
2019-01-13T04:57:20.493Z,996.86
2019-01-13T04:58:20.491Z,996.84
2019-01-13T04:59:20.420Z,996.86
2019-01-13T05:00:20.406Z,996.83
2019-01-13T05:01:20.490Z,996.87
2019-01-13T05:02:20.462Z,996.87
2019-01-13T05:03:20.394Z,996.81
2019-01-13T05:04:20.373Z,996.79
2019-01-13T05:05:20.381Z,996.79
2019-01-13T05:06:21.398Z,996.80
2019-01-13T05:07:20.432Z,996.80
2019-01-13T05:08:20.388Z,996.82
2019-01-13T05:09:20.369Z,996.80
2019-01-13T05:10:20.316Z,996.85
2019-01-13T05:11:20.385Z,996.84
2019-01-13T05:12:20.310Z,996.83
2019-01-13T05:13:20.371Z,996.80
2019-01-13T05:14:20.467Z,996.80
2019-01-13T05:15:20.262Z,996.88
2019-01-13T05:16:20.273Z,996.77
2019-01-13T05:17:20.255Z,996.77
2019-01-13T05:18:20.315Z,996.81
2019-01-13T05:19:20.247Z,996.82
2019-01-13T05:20:20.233Z,996.84
2019-01-13T05:21:20.261Z,996.84
2019-01-13T05:22:20.218Z,996.84
2019-01-13T05:23:20.208Z,996.85
2019-01-13T05:24:20.249Z,996.86
2019-01-13T05:25:20.267Z,996.79
2019-01-13T05:26:20.173Z,996.84
2019-01-13T05:27:20.152Z,996.83
2019-01-13T05:28:20.194Z,996.78
2019-01-13T05:29:20.155Z,996.78
2019-01-13T05:30:20.370Z,996.78
2019-01-13T05:31:20.292Z,996.79
2019-01-13T05:32:20.093Z,996.76
2019-01-13T05:33:20.093Z,996.71
2019-01-13T05:34:20.146Z,996.78
2019-01-13T05:35:20.100Z,996.71
2019-01-13T05:36:20.022Z,996.69
2019-01-13T05:37:20.046Z,996.70
2019-01-13T05:38:20.062Z,996.72
2019-01-13T05:39:19.997Z,996.65
2019-01-13T05:40:19.995Z,996.73
2019-01-13T05:41:19.963Z,996.66
2019-01-13T05:42:19.987Z,996.67
2019-01-13T05:43:19.961Z,996.62
2019-01-13T05:44:19.972Z,996.60
2019-01-13T05:45:19.936Z,996.60
2019-01-13T05:46:19.966Z,996.62
2019-01-13T05:47:19.936Z,996.58
2019-01-13T05:48:19.905Z,996.58
2019-01-13T05:49:19.887Z,996.58
2019-01-13T05:50:19.904Z,996.58
2019-01-13T05:51:29.540Z,996.50
2019-01-13T05:52:30.635Z,996.48
2019-01-13T05:53:20.375Z,996.43
2019-01-13T05:54:20.045Z,996.45
2019-01-13T05:55:20.449Z,996.44
2019-01-13T05:56:19.826Z,996.39
2019-01-13T05:57:19.833Z,996.44
2019-01-13T05:58:19.805Z,996.43
2019-01-13T05:59:19.873Z,996.35
2019-01-13T06:00:19.792Z,996.34
2019-01-13T06:01:19.901Z,996.35
2019-01-13T06:02:19.787Z,996.28
2019-01-13T06:03:19.754Z,996.20
2019-01-13T06:04:20.437Z,996.23
2019-01-13T06:05:19.727Z,996.21
2019-01-13T06:06:19.720Z,996.18
2019-01-13T06:07:19.722Z,996.24
2019-01-13T06:08:19.742Z,996.25
2019-01-13T06:09:19.838Z,996.26
2019-01-13T06:10:19.686Z,996.26
2019-01-13T06:11:19.777Z,996.21
2019-01-13T06:12:25.167Z,996.25
2019-01-13T06:13:20.443Z,996.25
2019-01-13T06:14:19.676Z,996.19
2019-01-13T06:15:19.667Z,996.26
2019-01-13T06:16:19.643Z,996.18
2019-01-13T06:17:19.611Z,996.18
2019-01-13T06:18:19.604Z,996.14
2019-01-13T06:19:19.638Z,996.18
2019-01-13T06:20:19.626Z,996.13
2019-01-13T06:21:19.569Z,996.13
2019-01-13T06:22:19.573Z,996.12
2019-01-13T06:23:19.645Z,996.12
2019-01-13T06:24:19.541Z,996.13
2019-01-13T06:25:19.553Z,996.13
2019-01-13T06:26:19.591Z,996.15
2019-01-13T06:27:19.502Z,996.06
2019-01-13T06:28:19.473Z,996.10
2019-01-13T06:29:19.490Z,996.14
2019-01-13T06:30:19.553Z,996.12
2019-01-13T06:31:19.523Z,996.14
2019-01-13T06:32:19.581Z,996.11
2019-01-13T06:33:20.453Z,996.17
2019-01-13T06:34:19.967Z,996.14
2019-01-13T06:35:19.426Z,996.12
2019-01-13T06:36:19.398Z,996.16
2019-01-13T06:37:20.276Z,996.14
2019-01-13T06:38:19.554Z,996.09
2019-01-13T06:39:19.384Z,996.12
2019-01-13T06:40:19.428Z,996.17
2019-01-13T06:41:19.347Z,996.11
2019-01-13T06:42:19.370Z,996.13
2019-01-13T06:43:19.374Z,996.12
2019-01-13T06:44:19.333Z,996.09
2019-01-13T06:45:19.404Z,996.16
2019-01-13T06:46:19.317Z,996.06
2019-01-13T06:47:19.288Z,996.09
2019-01-13T06:48:19.279Z,996.09
2019-01-13T06:49:19.267Z,996.14
2019-01-13T06:50:19.259Z,996.19
2019-01-13T06:51:19.268Z,996.17
2019-01-13T06:52:19.259Z,996.24
2019-01-13T06:53:19.222Z,996.24
2019-01-13T06:54:19.215Z,996.32
2019-01-13T06:55:19.185Z,996.30
2019-01-13T06:56:19.946Z,996.26
2019-01-13T06:57:19.173Z,996.25
2019-01-13T06:58:19.184Z,996.26
2019-01-13T06:59:19.166Z,996.29
2019-01-13T07:00:19.143Z,996.21
2019-01-13T07:01:19.170Z,996.19
2019-01-13T07:02:19.118Z,996.19
2019-01-13T07:03:19.119Z,996.20
2019-01-13T07:04:19.126Z,996.14
2019-01-13T07:05:19.141Z,996.03
2019-01-13T07:06:19.127Z,996.04
2019-01-13T07:07:19.102Z,996.02
2019-01-13T07:08:19.106Z,996.08
2019-01-13T07:09:19.108Z,996.08
2019-01-13T07:10:19.137Z,996.01
2019-01-13T07:11:19.019Z,996.07
2019-01-13T07:12:19.052Z,996.07
2019-01-13T07:13:19.008Z,996.11
2019-01-13T07:14:19.014Z,996.09
2019-01-13T07:15:19.002Z,996.04
2019-01-13T07:16:19.001Z,996.07
2019-01-13T07:17:18.963Z,995.96
2019-01-13T07:18:18.938Z,995.93
2019-01-13T07:19:18.997Z,995.95
2019-01-13T07:20:18.981Z,995.97
2019-01-13T07:21:19.010Z,995.96
2019-01-13T07:22:18.925Z,995.91
2019-01-13T07:23:18.912Z,995.88
2019-01-13T07:24:18.927Z,995.75
2019-01-13T07:25:18.920Z,995.84
2019-01-13T07:26:18.919Z,995.81
2019-01-13T07:27:18.889Z,995.75
2019-01-13T07:28:18.853Z,995.79
2019-01-13T07:29:18.952Z,995.73
2019-01-13T07:31:36.272Z,995.70
2019-01-13T07:32:36.298Z,995.73
2019-01-13T07:33:36.191Z,995.70
2019-01-13T07:34:36.794Z,995.72
2019-01-13T07:35:45.998Z,995.75
2019-01-13T07:36:36.972Z,995.71
2019-01-13T07:37:36.177Z,995.73
2019-01-13T07:38:36.164Z,995.68
2019-01-13T07:39:48.525Z,995.72
2019-01-13T07:40:45.344Z,995.73
2019-01-13T07:41:36.421Z,995.65
2019-01-13T07:42:36.095Z,995.67
2019-01-13T07:43:36.387Z,995.64
2019-01-13T07:44:36.229Z,995.63
2019-01-13T07:45:36.233Z,995.61
2019-01-13T07:46:36.129Z,995.56
2019-01-13T07:47:36.441Z,995.52
2019-01-13T07:48:36.162Z,995.51
2019-01-13T07:49:36.050Z,995.47
2019-01-13T07:51:56.574Z,995.40
2019-01-13T07:53:06.711Z,995.46
2019-01-13T07:53:56.551Z,995.43
2019-01-13T07:54:56.317Z,995.47
2019-01-13T07:55:56.621Z,995.50
2019-01-13T07:56:56.453Z,995.47
2019-01-13T07:57:56.258Z,995.49
2019-01-13T07:58:56.247Z,995.48
2019-01-13T07:59:56.274Z,995.45
2019-01-13T08:00:56.255Z,995.44
2019-01-13T08:01:56.399Z,995.38
2019-01-13T08:02:56.269Z,995.29
2019-01-13T08:03:56.261Z,995.32
2019-01-13T08:04:56.308Z,995.35
2019-01-13T08:05:56.219Z,995.31
2019-01-13T08:06:56.200Z,995.32
2019-01-13T08:07:56.219Z,995.37
2019-01-13T08:08:56.176Z,995.29
2019-01-13T08:09:56.230Z,995.31
2019-01-13T08:10:56.214Z,995.26
2019-01-13T08:11:56.194Z,995.30
2019-01-13T08:12:56.082Z,995.27
2019-01-13T08:13:56.119Z,995.27
2019-01-13T08:14:56.113Z,995.22
2019-01-13T08:15:56.116Z,995.19
2019-01-13T08:16:56.100Z,995.27
2019-01-13T08:17:56.088Z,995.13
2019-01-13T08:18:56.140Z,995.17
2019-01-13T08:19:56.014Z,995.08
2019-01-13T08:20:56.019Z,995.09
2019-01-13T08:21:56.073Z,995.07
2019-01-13T08:22:56.081Z,995.11
2019-01-13T08:23:55.959Z,995.06
2019-01-13T08:24:56.053Z,995.11
2019-01-13T08:25:55.949Z,995.06
2019-01-13T08:26:56.014Z,995.00
2019-01-13T08:27:55.985Z,995.01
2019-01-13T08:28:55.975Z,994.97
2019-01-13T08:29:55.929Z,994.97
2019-01-13T08:30:55.968Z,994.97
2019-01-13T08:31:58.094Z,994.95
2019-01-13T08:32:57.103Z,994.91
2019-01-13T08:33:57.611Z,994.93
2019-01-13T08:34:58.464Z,994.92
2019-01-13T08:35:55.890Z,994.91
2019-01-13T08:36:55.904Z,994.91
2019-01-13T08:37:55.907Z,994.84
2019-01-13T08:38:55.991Z,994.86
2019-01-13T08:39:55.913Z,994.86
2019-01-13T08:40:55.805Z,994.84
2019-01-13T08:41:56.262Z,994.85
2019-01-13T08:42:56.718Z,994.88
2019-01-13T08:43:55.806Z,994.84
2019-01-13T08:44:55.760Z,994.83
2019-01-13T08:45:55.740Z,994.82
2019-01-13T08:46:55.806Z,994.84
2019-01-13T08:47:55.715Z,994.78
2019-01-13T08:48:55.759Z,994.75
2019-01-13T08:49:55.712Z,994.70
2019-01-13T08:50:55.719Z,994.67
2019-01-13T08:51:55.765Z,994.64
2019-01-13T08:52:55.673Z,994.64
2019-01-13T08:53:56.220Z,994.61
2019-01-13T08:56:13.154Z,994.47
2019-01-13T08:57:14.592Z,994.47
2019-01-13T08:58:13.084Z,994.50
2019-01-13T08:59:13.064Z,994.45
2019-01-13T09:00:13.025Z,994.41
2019-01-13T09:01:13.006Z,994.33
2019-01-13T09:02:13.044Z,994.23
2019-01-13T09:03:13.050Z,994.24
2019-01-13T09:04:13.177Z,994.27
2019-01-13T09:05:12.995Z,994.22
2019-01-13T09:06:13.026Z,994.25
2019-01-13T09:07:12.951Z,994.25
2019-01-13T09:08:12.942Z,994.20
2019-01-13T09:09:12.942Z,994.23
2019-01-13T09:10:12.920Z,994.21
2019-01-13T09:11:12.899Z,994.20
2019-01-13T09:12:12.914Z,994.20
2019-01-13T09:13:12.933Z,994.25
2019-01-13T09:14:12.871Z,994.24
2019-01-13T09:15:12.905Z,994.11
2019-01-13T09:16:13.301Z,994.11
2019-01-13T09:17:12.949Z,994.03
2019-01-13T09:18:12.945Z,994.06
2019-01-13T09:19:12.855Z,994.03
2019-01-13T09:20:13.178Z,994.03
2019-01-13T09:21:14.028Z,994.00
2019-01-13T09:22:12.931Z,993.99
2019-01-13T09:23:12.852Z,993.96
2019-01-13T09:24:13.279Z,993.93
2019-01-13T09:25:12.843Z,993.90
2019-01-13T09:26:12.823Z,993.90
2019-01-13T09:27:13.045Z,993.84
2019-01-13T09:28:12.819Z,993.84
2019-01-13T09:29:14.298Z,993.80
2019-01-13T09:30:13.309Z,993.84
2019-01-13T09:31:13.915Z,993.82
2019-01-13T09:32:13.807Z,993.78
2019-01-13T09:33:12.759Z,993.80
2019-01-13T09:34:13.699Z,993.74
2019-01-13T09:35:12.717Z,993.68
2019-01-13T09:36:12.771Z,993.70
2019-01-13T09:37:12.682Z,993.62
2019-01-13T09:38:12.725Z,993.59
2019-01-13T09:39:12.654Z,993.57
2019-01-13T09:40:12.943Z,993.57
2019-01-13T09:41:12.733Z,993.52
2019-01-13T09:42:14.283Z,993.51
2019-01-13T09:43:12.754Z,993.52
2019-01-13T09:44:12.540Z,993.44
2019-01-13T09:45:12.737Z,993.38
2019-01-13T09:46:12.621Z,993.35
2019-01-13T09:47:12.956Z,993.37
2019-01-13T09:48:12.867Z,993.30
2019-01-13T09:49:12.558Z,993.25
2019-01-13T09:50:14.307Z,993.29
2019-01-13T09:51:12.568Z,993.22
2019-01-13T09:52:12.513Z,993.24
2019-01-13T09:53:12.488Z,993.19
2019-01-13T09:54:12.494Z,993.18
2019-01-13T09:55:12.581Z,993.15
2019-01-13T09:56:12.497Z,993.13
2019-01-13T09:57:12.502Z,993.04
2019-01-13T09:58:12.494Z,993.11
2019-01-13T09:59:12.403Z,993.07
2019-01-13T10:00:12.680Z,993.06
2019-01-13T10:01:12.581Z,992.99
2019-01-13T10:02:12.442Z,993.00
2019-01-13T10:03:12.364Z,993.02
2019-01-13T10:04:12.354Z,992.91
2019-01-13T10:05:12.394Z,992.89
2019-01-13T10:06:12.354Z,992.92
2019-01-13T10:07:12.402Z,992.87
2019-01-13T10:08:12.416Z,992.89
2019-01-13T10:09:12.334Z,992.79
2019-01-13T10:10:12.313Z,992.77
2019-01-13T10:11:12.311Z,992.72
2019-01-13T10:12:12.274Z,992.76
2019-01-13T10:13:12.356Z,992.82
2019-01-13T10:14:12.592Z,992.65
2019-01-13T10:15:13.815Z,992.58
2019-01-13T10:16:12.286Z,992.53
2019-01-13T10:17:12.200Z,992.55
2019-01-13T10:18:12.234Z,992.54
2019-01-13T10:19:12.811Z,992.46
2019-01-13T10:20:12.201Z,992.44
2019-01-13T10:21:12.166Z,992.39
2019-01-13T10:22:12.189Z,992.32
2019-01-13T10:23:12.311Z,992.33
2019-01-13T10:24:12.356Z,992.28
2019-01-13T10:25:12.234Z,992.24
2019-01-13T10:26:12.217Z,992.22
2019-01-13T10:27:12.162Z,992.23
2019-01-13T10:28:12.175Z,992.17
2019-01-13T10:29:12.133Z,992.17
2019-01-13T10:30:12.171Z,992.18
2019-01-13T10:31:12.074Z,992.09
2019-01-13T10:32:12.065Z,992.04
2019-01-13T10:33:12.034Z,992.07
2019-01-13T10:34:12.261Z,991.97
2019-01-13T10:35:12.812Z,991.98
2019-01-13T10:36:12.069Z,991.92
2019-01-13T10:37:12.087Z,991.85
2019-01-13T10:38:22.466Z,991.79
2019-01-13T10:39:12.033Z,991.82
2019-01-13T10:40:11.956Z,991.79
2019-01-13T10:41:12.146Z,991.78
2019-01-13T10:42:12.279Z,991.70
2019-01-13T10:43:11.952Z,991.63
2019-01-13T10:44:11.915Z,991.67
2019-01-13T10:45:12.088Z,991.62
2019-01-13T10:46:11.979Z,991.56
2019-01-13T10:47:11.957Z,991.60
2019-01-13T10:48:12.084Z,991.47
2019-01-13T10:49:11.918Z,991.41
2019-01-13T10:50:11.881Z,991.42
2019-01-13T10:51:12.673Z,991.43
2019-01-13T10:52:11.864Z,991.44
2019-01-13T10:53:11.832Z,991.36
2019-01-13T10:54:11.890Z,991.41
2019-01-13T10:55:11.848Z,991.33
2019-01-13T10:56:11.822Z,991.30
2019-01-13T10:57:11.846Z,991.25
2019-01-13T10:58:11.798Z,991.26
2019-01-13T10:59:11.793Z,991.18
2019-01-13T11:00:11.779Z,991.16
2019-01-13T11:01:11.760Z,991.10
2019-01-13T11:02:11.763Z,991.05
2019-01-13T11:03:11.746Z,991.07
2019-01-13T11:04:11.755Z,991.01
2019-01-13T11:05:12.240Z,990.97
2019-01-13T11:06:11.784Z,990.97
2019-01-13T11:07:11.719Z,990.95
2019-01-13T11:08:11.973Z,990.94
2019-01-13T11:09:11.633Z,990.93
2019-01-13T11:10:11.866Z,990.91
2019-01-13T11:11:11.652Z,990.87
2019-01-13T11:12:11.646Z,990.87
2019-01-13T11:13:11.850Z,990.83
2019-01-13T11:14:11.625Z,990.81
2019-01-13T11:15:11.664Z,990.72
2019-01-13T11:16:11.662Z,990.62
2019-01-13T11:17:11.813Z,990.65
2019-01-13T11:18:11.644Z,990.61
2019-01-13T11:19:11.613Z,990.56
2019-01-13T11:20:11.614Z,990.61
2019-01-13T11:21:11.584Z,990.50
2019-01-13T11:22:11.568Z,990.50
2019-01-13T11:23:11.546Z,990.49
2019-01-13T11:24:11.644Z,990.43
2019-01-13T11:25:11.506Z,990.43
2019-01-13T11:26:13.966Z,990.37
2019-01-13T11:27:11.471Z,990.31
2019-01-13T11:28:11.555Z,990.29
2019-01-13T11:29:11.635Z,990.28
2019-01-13T11:30:11.987Z,990.30
2019-01-13T11:31:11.480Z,990.32
2019-01-13T11:32:11.487Z,990.20
2019-01-13T11:33:11.458Z,990.14
2019-01-13T11:34:11.413Z,990.15
2019-01-13T11:35:11.501Z,990.11
2019-01-13T11:36:11.403Z,990.11
2019-01-13T11:37:11.803Z,990.02
2019-01-13T11:38:11.390Z,990.01
2019-01-13T11:39:11.357Z,990.03
2019-01-13T11:40:11.342Z,989.95
2019-01-13T11:41:11.351Z,989.94
2019-01-13T11:42:11.318Z,989.92
2019-01-13T11:43:11.407Z,989.90
2019-01-13T11:44:11.327Z,989.84
2019-01-13T11:45:11.290Z,989.78
2019-01-13T11:46:11.327Z,989.72
2019-01-13T11:47:11.267Z,989.72
2019-01-13T11:48:11.344Z,989.68
2019-01-13T11:49:11.256Z,989.74
2019-01-13T11:50:11.281Z,989.69
2019-01-13T11:51:11.307Z,989.67
2019-01-13T11:52:11.210Z,989.63
2019-01-13T11:53:11.188Z,989.58
2019-01-13T11:54:11.199Z,989.43
2019-01-13T11:55:11.172Z,989.55
2019-01-13T11:56:11.191Z,989.42
2019-01-13T11:57:21.467Z,989.37
2019-01-13T11:58:11.442Z,989.43
2019-01-13T12:00:30.324Z,989.39
2019-01-13T12:01:30.295Z,989.25
2019-01-13T12:02:32.728Z,989.23
2019-01-13T12:03:41.463Z,989.22
2019-01-13T12:04:31.297Z,989.15
2019-01-13T12:05:29.726Z,989.16
2019-01-13T12:06:29.837Z,989.10
2019-01-13T12:07:29.714Z,989.11
2019-01-13T12:08:29.661Z,989.09
2019-01-13T12:09:29.814Z,989.08
2019-01-13T12:10:29.673Z,989.03
2019-01-13T12:11:29.819Z,989.00
2019-01-13T12:12:29.707Z,988.92
2019-01-13T12:13:29.688Z,988.90
2019-01-13T12:14:29.849Z,988.86
2019-01-13T12:15:29.645Z,988.84
2019-01-13T12:16:29.573Z,988.86
2019-01-13T12:17:29.655Z,988.81
2019-01-13T12:18:29.553Z,988.76
2019-01-13T12:19:29.557Z,988.71
2019-01-13T12:20:30.299Z,988.70
2019-01-13T12:21:29.521Z,988.74
2019-01-13T12:22:29.551Z,988.71
2019-01-13T12:23:29.514Z,988.66
2019-01-13T12:24:29.471Z,988.63
2019-01-13T12:25:30.298Z,988.59
2019-01-13T12:26:29.484Z,988.59
2019-01-13T12:27:29.669Z,988.57
2019-01-13T12:28:29.469Z,988.61
2019-01-13T12:29:30.828Z,988.64
2019-01-13T12:30:29.534Z,988.57
2019-01-13T12:31:29.403Z,988.49
2019-01-13T12:32:29.456Z,988.41
2019-01-13T12:33:29.419Z,988.39
2019-01-13T12:34:29.433Z,988.39
2019-01-13T12:35:29.663Z,988.35
2019-01-13T12:36:29.429Z,988.30
2019-01-13T12:37:29.473Z,988.27
2019-01-13T12:38:29.392Z,988.25